sensor_id;sensor_type;location;lat;lon;timestamp;P1;durP1;ratioP1;P2;durP2;ratioP2
31514;SDS011;40526;52.088;17.020;2023-02-04T00:03:44;12.88;;;9.00;;
31514;SDS011;40526;52.088;17.020;2023-02-04T00:08:48;25.95;;;18.13;;
31514;SDS011;40526;52.088;17.020;2023-02-04T00:13:50;36.75;;;22.48;;
31514;SDS011;40526;52.088;17.020;2023-02-04T00:18:53;38.47;;;23.38;;
31514;SDS011;40526;52.088;17.020;2023-02-04T00:23:57;45.00;;;26.83;;
31514;SDS011;40526;52.088;17.020;2023-02-04T00:29:00;44.03;;;27.55;;
31514;SDS011;40526;52.088;17.020;2023-02-04T00:34:02;37.05;;;21.10;;
31514;SDS011;40526;52.088;17.020;2023-02-04T00:39:06;33.67;;;20.00;;
31514;SDS011;40526;52.088;17.020;2023-02-04T00:44:09;25.20;;;17.40;;
31514;SDS011;40526;52.088;17.020;2023-02-04T00:49:13;23.92;;;15.82;;
31514;SDS011;40526;52.088;17.020;2023-02-04T00:54:17;23.50;;;16.60;;
31514;SDS011;40526;52.088;17.020;2023-02-04T00:59:20;24.67;;;15.65;;
31514;SDS011;40526;52.088;17.020;2023-02-04T01:04:22;23.15;;;15.70;;
31514;SDS011;40526;52.088;17.020;2023-02-04T01:09:27;25.55;;;15.32;;
31514;SDS011;40526;52.088;17.020;2023-02-04T01:14:29;14.77;;;11.27;;
31514;SDS011;40526;52.088;17.020;2023-02-04T01:19:32;15.43;;;10.95;;
31514;SDS011;40526;52.088;17.020;2023-02-04T01:24:36;13.02;;;9.60;;
31514;SDS011;40526;52.088;17.020;2023-02-04T01:29:57;12.15;;;8.48;;
31514;SDS011;40526;52.088;17.020;2023-02-04T01:34:59;12.40;;;8.50;;
31514;SDS011;40526;52.088;17.020;2023-02-04T01:40:04;5.68;;;4.82;;
31514;SDS011;40526;52.088;17.020;2023-02-04T01:45:08;6.13;;;4.00;;
31514;SDS011;40526;52.088;17.020;2023-02-04T01:50:11;6.15;;;4.53;;
31514;SDS011;40526;52.088;17.020;2023-02-04T01:55:18;7.07;;;6.18;;
31514;SDS011;40526;52.088;17.020;2023-02-04T02:00:21;9.32;;;5.68;;
31514;SDS011;40526;52.088;17.020;2023-02-04T02:05:26;6.35;;;5.15;;
31514;SDS011;40526;52.088;17.020;2023-02-04T02:10:37;10.35;;;6.30;;
31514;SDS011;40526;52.088;17.020;2023-02-04T02:15:41;9.23;;;6.13;;
31514;SDS011;40526;52.088;17.020;2023-02-04T02:20:43;8.85;;;6.03;;
31514;SDS011;40526;52.088;17.020;2023-02-04T02:25:48;9.63;;;6.35;;
31514;SDS011;40526;52.088;17.020;2023-02-04T02:30:51;9.05;;;6.05;;
31514;SDS011;40526;52.088;17.020;2023-02-04T02:35:54;10.95;;;6.32;;
31514;SDS011;40526;52.088;17.020;2023-02-04T02:40:59;6.30;;;4.60;;
31514;SDS011;40526;52.088;17.020;2023-02-04T02:46:02;7.10;;;5.05;;
31514;SDS011;40526;52.088;17.020;2023-02-04T02:51:05;6.43;;;4.47;;
31514;SDS011;40526;52.088;17.020;2023-02-04T02:56:09;6.63;;;4.55;;
31514;SDS011;40526;52.088;17.020;2023-02-04T03:01:12;8.27;;;5.53;;
31514;SDS011;40526;52.088;17.020;2023-02-04T03:06:16;12.52;;;7.38;;
31514;SDS011;40526;52.088;17.020;2023-02-04T03:11:22;10.95;;;7.53;;
31514;SDS011;40526;52.088;17.020;2023-02-04T03:16:27;15.77;;;8.40;;
31514;SDS011;40526;52.088;17.020;2023-02-04T03:21:32;14.48;;;9.18;;
31514;SDS011;40526;52.088;17.020;2023-02-04T03:26:38;14.05;;;8.98;;
31514;SDS011;40526;52.088;17.020;2023-02-04T03:31:41;13.77;;;9.70;;
31514;SDS011;40526;52.088;17.020;2023-02-04T03:36:43;13.95;;;9.60;;
31514;SDS011;40526;52.088;17.020;2023-02-04T03:41:47;14.35;;;8.88;;
31514;SDS011;40526;52.088;17.020;2023-02-04T03:46:49;12.43;;;8.95;;
31514;SDS011;40526;52.088;17.020;2023-02-04T03:51:54;14.80;;;8.63;;
31514;SDS011;40526;52.088;17.020;2023-02-04T03:56:58;14.25;;;7.68;;
31514;SDS011;40526;52.088;17.020;2023-02-04T04:02:00;7.63;;;5.80;;
31514;SDS011;40526;52.088;17.020;2023-02-04T04:07:03;9.68;;;6.45;;
31514;SDS011;40526;52.088;17.020;2023-02-04T04:12:07;9.35;;;6.10;;
31514;SDS011;40526;52.088;17.020;2023-02-04T04:17:10;8.68;;;6.07;;
31514;SDS011;40526;52.088;17.020;2023-02-04T04:22:12;10.73;;;6.43;;
31514;SDS011;40526;52.088;17.020;2023-02-04T04:27:16;7.30;;;4.90;;
31514;SDS011;40526;52.088;17.020;2023-02-04T04:32:18;8.15;;;5.70;;
31514;SDS011;40526;52.088;17.020;2023-02-04T04:37:21;7.15;;;4.97;;
31514;SDS011;40526;52.088;17.020;2023-02-04T04:42:25;7.22;;;5.47;;
31514;SDS011;40526;52.088;17.020;2023-02-04T04:47:27;7.05;;;4.38;;
31514;SDS011;40526;52.088;17.020;2023-02-04T04:52:30;8.00;;;5.40;;
31514;SDS011;40526;52.088;17.020;2023-02-04T04:57:34;6.93;;;5.28;;
31514;SDS011;40526;52.088;17.020;2023-02-04T05:02:36;6.38;;;5.07;;
31514;SDS011;40526;52.088;17.020;2023-02-04T05:07:39;7.25;;;5.43;;
31514;SDS011;40526;52.088;17.020;2023-02-04T05:12:43;8.35;;;5.10;;
31514;SDS011;40526;52.088;17.020;2023-02-04T05:17:45;22.67;;;8.80;;
31514;SDS011;40526;52.088;17.020;2023-02-04T05:22:48;8.55;;;5.82;;
31514;SDS011;40526;52.088;17.020;2023-02-04T05:27:53;10.48;;;6.10;;
31514;SDS011;40526;52.088;17.020;2023-02-04T05:32:55;7.93;;;5.43;;
31514;SDS011;40526;52.088;17.020;2023-02-04T05:37:58;7.72;;;4.95;;
31514;SDS011;40526;52.088;17.020;2023-02-04T05:43:02;6.68;;;4.78;;
31514;SDS011;40526;52.088;17.020;2023-02-04T05:48:05;11.52;;;5.13;;
31514;SDS011;40526;52.088;17.020;2023-02-04T05:53:07;11.52;;;5.15;;
31514;SDS011;40526;52.088;17.020;2023-02-04T05:58:11;10.13;;;5.03;;
31514;SDS011;40526;52.088;17.020;2023-02-04T06:03:14;7.70;;;5.35;;
31514;SDS011;40526;52.088;17.020;2023-02-04T06:08:18;6.05;;;4.88;;
31514;SDS011;40526;52.088;17.020;2023-02-04T06:13:22;7.60;;;4.88;;
31514;SDS011;40526;52.088;17.020;2023-02-04T06:18:25;8.95;;;6.28;;
31514;SDS011;40526;52.088;17.020;2023-02-04T06:23:27;9.98;;;7.00;;
31514;SDS011;40526;52.088;17.020;2023-02-04T06:28:31;13.20;;;9.25;;
31514;SDS011;40526;52.088;17.020;2023-02-04T06:33:34;29.58;;;16.45;;
31514;SDS011;40526;52.088;17.020;2023-02-04T06:38:36;20.60;;;12.68;;
31514;SDS011;40526;52.088;17.020;2023-02-04T06:43:40;18.35;;;8.88;;
31514;SDS011;40526;52.088;17.020;2023-02-04T06:48:43;15.82;;;8.63;;
31514;SDS011;40526;52.088;17.020;2023-02-04T06:53:45;13.95;;;7.85;;
31514;SDS011;40526;52.088;17.020;2023-02-04T06:58:49;14.77;;;8.00;;
31514;SDS011;40526;52.088;17.020;2023-02-04T07:03:51;16.85;;;9.35;;
31514;SDS011;40526;52.088;17.020;2023-02-04T07:08:54;65.35;;;30.30;;
31514;SDS011;40526;52.088;17.020;2023-02-04T07:13:58;19.05;;;13.48;;
31514;SDS011;40526;52.088;17.020;2023-02-04T07:19:00;8.43;;;5.70;;
31514;SDS011;40526;52.088;17.020;2023-02-04T07:24:03;6.40;;;5.30;;
31514;SDS011;40526;52.088;17.020;2023-02-04T07:29:06;20.05;;;8.85;;
31514;SDS011;40526;52.088;17.020;2023-02-04T07:34:09;30.38;;;9.80;;
31514;SDS011;40526;52.088;17.020;2023-02-04T07:39:11;20.63;;;8.30;;
31514;SDS011;40526;52.088;17.020;2023-02-04T07:44:15;30.63;;;10.32;;
31514;SDS011;40526;52.088;17.020;2023-02-04T07:49:17;14.68;;;6.90;;
31514;SDS011;40526;52.088;17.020;2023-02-04T07:54:20;4.63;;;2.97;;
31514;SDS011;40526;52.088;17.020;2023-02-04T07:59:24;6.53;;;4.63;;
31514;SDS011;40526;52.088;17.020;2023-02-04T08:04:26;7.10;;;2.70;;
31514;SDS011;40526;52.088;17.020;2023-02-04T08:09:29;26.70;;;10.23;;
31514;SDS011;40526;52.088;17.020;2023-02-04T08:14:33;11.38;;;5.95;;
31514;SDS011;40526;52.088;17.020;2023-02-04T08:19:36;7.10;;;3.88;;
31514;SDS011;40526;52.088;17.020;2023-02-04T08:24:39;5.35;;;3.17;;
31514;SDS011;40526;52.088;17.020;2023-02-04T08:29:42;6.78;;;3.42;;
31514;SDS011;40526;52.088;17.020;2023-02-04T08:34:45;7.55;;;4.30;;
31514;SDS011;40526;52.088;17.020;2023-02-04T08:39:48;8.48;;;4.45;;
31514;SDS011;40526;52.088;17.020;2023-02-04T08:44:52;5.65;;;2.85;;
31514;SDS011;40526;52.088;17.020;2023-02-04T08:49:54;8.25;;;3.08;;
31514;SDS011;40526;52.088;17.020;2023-02-04T08:54:56;7.38;;;3.30;;
31514;SDS011;40526;52.088;17.020;2023-02-04T09:00:00;3.22;;;2.47;;
31514;SDS011;40526;52.088;17.020;2023-02-04T09:05:03;4.10;;;1.45;;
31514;SDS011;40526;52.088;17.020;2023-02-04T09:10:06;10.20;;;3.88;;
31514;SDS011;40526;52.088;17.020;2023-02-04T09:15:10;12.80;;;5.07;;
31514;SDS011;40526;52.088;17.020;2023-02-04T09:20:12;3.42;;;2.05;;
31514;SDS011;40526;52.088;17.020;2023-02-04T09:25:15;8.18;;;3.03;;
31514;SDS011;40526;52.088;17.020;2023-02-04T09:30:19;8.95;;;4.30;;
31514;SDS011;40526;52.088;17.020;2023-02-04T09:35:21;6.75;;;2.83;;
31514;SDS011;40526;52.088;17.020;2023-02-04T09:40:25;5.05;;;2.85;;
31514;SDS011;40526;52.088;17.020;2023-02-04T09:45:31;5.57;;;2.83;;
31514;SDS011;40526;52.088;17.020;2023-02-04T09:50:34;5.95;;;2.83;;
31514;SDS011;40526;52.088;17.020;2023-02-04T09:55:37;4.82;;;2.88;;
31514;SDS011;40526;52.088;17.020;2023-02-04T10:00:41;9.77;;;4.45;;
31514;SDS011;40526;52.088;17.020;2023-02-04T10:05:45;14.10;;;7.45;;
31514;SDS011;40526;52.088;17.020;2023-02-04T10:10:47;8.68;;;5.15;;
31514;SDS011;40526;52.088;17.020;2023-02-04T10:15:52;11.75;;;5.05;;
31514;SDS011;40526;52.088;17.020;2023-02-04T10:20:55;10.57;;;4.32;;
31514;SDS011;40526;52.088;17.020;2023-02-04T10:25:58;10.43;;;5.20;;
31514;SDS011;40526;52.088;17.020;2023-02-04T10:31:02;7.43;;;5.47;;
31514;SDS011;40526;52.088;17.020;2023-02-04T10:36:07;3.20;;;2.33;;
31514;SDS011;40526;52.088;17.020;2023-02-04T10:41:11;6.43;;;3.53;;
31514;SDS011;40526;52.088;17.020;2023-02-04T10:46:18;7.07;;;4.25;;
31514;SDS011;40526;52.088;17.020;2023-02-04T10:51:20;8.13;;;4.35;;
31514;SDS011;40526;52.088;17.020;2023-02-04T10:56:23;18.52;;;8.43;;
31514;SDS011;40526;52.088;17.020;2023-02-04T11:01:26;8.13;;;3.85;;
31514;SDS011;40526;52.088;17.020;2023-02-04T11:06:30;10.68;;;5.05;;
31514;SDS011;40526;52.088;17.020;2023-02-04T11:11:34;23.98;;;11.02;;
31514;SDS011;40526;52.088;17.020;2023-02-04T11:16:46;15.63;;;5.68;;
31514;SDS011;40526;52.088;17.020;2023-02-04T11:21:49;6.40;;;3.88;;
31514;SDS011;40526;52.088;17.020;2023-02-04T11:26:52;4.72;;;3.10;;
31514;SDS011;40526;52.088;17.020;2023-02-04T11:32:12;8.10;;;3.67;;
31514;SDS011;40526;52.088;17.020;2023-02-04T11:37:33;8.50;;;4.75;;
31514;SDS011;40526;52.088;17.020;2023-02-04T11:42:40;7.18;;;3.78;;
31514;SDS011;40526;52.088;17.020;2023-02-04T11:47:44;2.42;;;1.73;;
31514;SDS011;40526;52.088;17.020;2023-02-04T11:52:47;2.75;;;2.33;;
31514;SDS011;40526;52.088;17.020;2023-02-04T11:57:50;13.05;;;6.28;;
31514;SDS011;40526;52.088;17.020;2023-02-04T12:03:21;6.25;;;2.85;;
31514;SDS011;40526;52.088;17.020;2023-02-04T12:08:25;4.40;;;2.80;;
31514;SDS011;40526;52.088;17.020;2023-02-04T12:13:28;2.28;;;2.08;;
31514;SDS011;40526;52.088;17.020;2023-02-04T12:18:32;4.50;;;1.92;;
31514;SDS011;40526;52.088;17.020;2023-02-04T12:23:35;4.32;;;2.28;;
31514;SDS011;40526;52.088;17.020;2023-02-04T12:28:37;4.22;;;2.25;;
31514;SDS011;40526;52.088;17.020;2023-02-04T12:33:41;4.63;;;2.50;;
31514;SDS011;40526;52.088;17.020;2023-02-04T12:38:44;14.68;;;5.97;;
31514;SDS011;40526;52.088;17.020;2023-02-04T12:43:47;4.22;;;2.75;;
31514;SDS011;40526;52.088;17.020;2023-02-04T13:59:21;7.75;;;3.40;;
31514;SDS011;40526;52.088;17.020;2023-02-04T14:04:24;7.53;;;4.63;;
31514;SDS011;40526;52.088;17.020;2023-02-04T14:09:27;11.30;;;6.32;;
31514;SDS011;40526;52.088;17.020;2023-02-04T14:14:37;4.95;;;3.30;;
31514;SDS011;40526;52.088;17.020;2023-02-04T14:19:39;8.20;;;3.92;;
31514;SDS011;40526;52.088;17.020;2023-02-04T14:24:42;3.25;;;2.00;;
31514;SDS011;40526;52.088;17.020;2023-02-04T14:29:48;5.57;;;4.20;;
31514;SDS011;40526;52.088;17.020;2023-02-04T14:34:50;7.60;;;3.70;;
31514;SDS011;40526;52.088;17.020;2023-02-04T14:39:53;7.78;;;4.30;;
31514;SDS011;40526;52.088;17.020;2023-02-04T14:44:57;8.80;;;5.13;;
31514;SDS011;40526;52.088;17.020;2023-02-04T14:49:59;19.15;;;7.88;;
31514;SDS011;40526;52.088;17.020;2023-02-04T14:55:02;7.43;;;4.47;;
31514;SDS011;40526;52.088;17.020;2023-02-04T15:00:07;13.00;;;6.40;;
31514;SDS011;40526;52.088;17.020;2023-02-04T15:05:10;10.10;;;4.32;;
31514;SDS011;40526;52.088;17.020;2023-02-04T15:10:41;13.05;;;5.63;;
31514;SDS011;40526;52.088;17.020;2023-02-04T16:47:43;12.43;;;6.95;;
31514;SDS011;40526;52.088;17.020;2023-02-04T16:53:08;10.70;;;4.53;;
31514;SDS011;40526;52.088;17.020;2023-02-04T16:58:15;11.68;;;5.18;;
31514;SDS011;40526;52.088;17.020;2023-02-04T17:03:47;5.28;;;2.75;;
31514;SDS011;40526;52.088;17.020;2023-02-04T17:09:28;9.80;;;4.30;;
31514;SDS011;40526;52.088;17.020;2023-02-04T17:27:45;12.05;;;6.13;;
31514;SDS011;40526;52.088;17.020;2023-02-04T17:33:13;8.50;;;4.30;;
31514;SDS011;40526;52.088;17.020;2023-02-04T17:50:02;8.32;;;3.60;;
31514;SDS011;40526;52.088;17.020;2023-02-04T17:55:09;6.45;;;3.67;;
31514;SDS011;40526;52.088;17.020;2023-02-04T18:00:19;9.82;;;3.90;;
31514;SDS011;40526;52.088;17.020;2023-02-04T18:05:24;11.65;;;3.75;;
31514;SDS011;40526;52.088;17.020;2023-02-04T18:10:29;9.55;;;4.82;;
31514;SDS011;40526;52.088;17.020;2023-02-04T18:15:33;5.72;;;3.03;;
31514;SDS011;40526;52.088;17.020;2023-02-04T18:20:37;8.45;;;4.15;;
31514;SDS011;40526;52.088;17.020;2023-02-04T18:25:39;8.20;;;4.13;;
31514;SDS011;40526;52.088;17.020;2023-02-04T18:30:42;9.15;;;3.70;;
31514;SDS011;40526;52.088;17.020;2023-02-04T18:35:47;6.18;;;3.50;;
31514;SDS011;40526;52.088;17.020;2023-02-04T18:40:51;7.43;;;3.92;;
31514;SDS011;40526;52.088;17.020;2023-02-04T18:45:59;4.82;;;3.20;;
31514;SDS011;40526;52.088;17.020;2023-02-04T18:51:08;7.90;;;3.58;;
31514;SDS011;40526;52.088;17.020;2023-02-04T18:56:23;6.57;;;3.40;;
31514;SDS011;40526;52.088;17.020;2023-02-04T19:01:25;5.97;;;3.58;;
31514;SDS011;40526;52.088;17.020;2023-02-04T19:06:30;5.10;;;3.33;;
31514;SDS011;40526;52.088;17.020;2023-02-04T19:11:34;5.43;;;2.85;;
31514;SDS011;40526;52.088;17.020;2023-02-04T19:16:38;12.88;;;6.07;;
31514;SDS011;40526;52.088;17.020;2023-02-04T19:21:43;7.18;;;4.22;;
31514;SDS011;40526;52.088;17.020;2023-02-04T19:26:46;8.48;;;4.20;;
31514;SDS011;40526;52.088;17.020;2023-02-04T19:31:55;9.70;;;5.30;;
31514;SDS011;40526;52.088;17.020;2023-02-04T19:37:03;18.20;;;7.50;;
31514;SDS011;40526;52.088;17.020;2023-02-04T19:42:22;19.02;;;8.15;;
31514;SDS011;40526;52.088;17.020;2023-02-04T19:47:33;14.32;;;7.45;;
31514;SDS011;40526;52.088;17.020;2023-02-04T19:52:45;15.52;;;6.88;;
31514;SDS011;40526;52.088;17.020;2023-02-04T19:57:50;12.07;;;6.45;;
31514;SDS011;40526;52.088;17.020;2023-02-04T20:02:54;17.10;;;8.25;;
31514;SDS011;40526;52.088;17.020;2023-02-04T20:08:00;14.88;;;6.70;;
31514;SDS011;40526;52.088;17.020;2023-02-04T20:13:24;16.40;;;7.32;;
31514;SDS011;40526;52.088;17.020;2023-02-04T20:18:27;18.83;;;9.00;;
31514;SDS011;40526;52.088;17.020;2023-02-04T20:23:31;17.90;;;7.72;;
31514;SDS011;40526;52.088;17.020;2023-02-04T20:28:35;28.33;;;9.35;;
31514;SDS011;40526;52.088;17.020;2023-02-04T20:33:42;55.13;;;16.15;;
31514;SDS011;40526;52.088;17.020;2023-02-04T20:38:50;66.82;;;19.63;;
31514;SDS011;40526;52.088;17.020;2023-02-04T20:43:59;69.30;;;20.87;;
31514;SDS011;40526;52.088;17.020;2023-02-04T20:49:13;57.40;;;15.95;;
31514;SDS011;40526;52.088;17.020;2023-02-04T20:54:19;37.53;;;12.38;;
31514;SDS011;40526;52.088;17.020;2023-02-04T20:59:28;25.35;;;9.73;;
31514;SDS011;40526;52.088;17.020;2023-02-04T21:04:34;28.23;;;10.85;;
31514;SDS011;40526;52.088;17.020;2023-02-04T21:09:40;20.23;;;9.07;;
31514;SDS011;40526;52.088;17.020;2023-02-04T21:14:43;19.45;;;7.18;;
31514;SDS011;40526;52.088;17.020;2023-02-04T21:19:45;29.42;;;9.45;;
31514;SDS011;40526;52.088;17.020;2023-02-04T21:24:50;30.20;;;9.45;;
31514;SDS011;40526;52.088;17.020;2023-02-04T21:29:53;19.05;;;7.30;;
31514;SDS011;40526;52.088;17.020;2023-02-04T21:34:56;20.60;;;7.85;;
31514;SDS011;40526;52.088;17.020;2023-02-04T21:40:03;15.18;;;7.68;;
31514;SDS011;40526;52.088;17.020;2023-02-04T21:45:06;12.77;;;5.78;;
31514;SDS011;40526;52.088;17.020;2023-02-04T21:50:10;12.25;;;6.05;;
31514;SDS011;40526;52.088;17.020;2023-02-04T21:55:16;13.57;;;5.00;;
31514;SDS011;40526;52.088;17.020;2023-02-04T22:00:21;7.57;;;4.60;;
31514;SDS011;40526;52.088;17.020;2023-02-04T22:05:25;7.53;;;3.75;;
31514;SDS011;40526;52.088;17.020;2023-02-04T22:10:29;8.68;;;3.47;;
31514;SDS011;40526;52.088;17.020;2023-02-04T22:15:32;7.50;;;3.58;;
31514;SDS011;40526;52.088;17.020;2023-02-04T22:20:35;5.10;;;3.83;;
31514;SDS011;40526;52.088;17.020;2023-02-04T22:25:40;9.18;;;3.55;;
31514;SDS011;40526;52.088;17.020;2023-02-04T22:30:43;8.60;;;4.03;;
31514;SDS011;40526;52.088;17.020;2023-02-04T22:35:47;11.95;;;5.10;;
31514;SDS011;40526;52.088;17.020;2023-02-04T22:40:52;11.80;;;4.18;;
31514;SDS011;40526;52.088;17.020;2023-02-04T22:45:56;10.02;;;4.95;;
31514;SDS011;40526;52.088;17.020;2023-02-04T22:50:59;12.52;;;4.88;;
31514;SDS011;40526;52.088;17.020;2023-02-04T22:56:05;9.05;;;4.53;;
31514;SDS011;40526;52.088;17.020;2023-02-04T23:01:08;9.00;;;4.75;;
31514;SDS011;40526;52.088;17.020;2023-02-04T23:06:12;11.15;;;5.45;;
31514;SDS011;40526;52.088;17.020;2023-02-04T23:11:17;13.30;;;4.68;;
31514;SDS011;40526;52.088;17.020;2023-02-04T23:16:22;12.30;;;4.40;;
31514;SDS011;40526;52.088;17.020;2023-02-04T23:21:25;11.15;;;4.95;;
31514;SDS011;40526;52.088;17.020;2023-02-04T23:26:30;13.45;;;5.95;;
31514;SDS011;40526;52.088;17.020;2023-02-04T23:31:33;12.95;;;4.90;;
31514;SDS011;40526;52.088;17.020;2023-02-04T23:36:36;10.18;;;4.78;;
31514;SDS011;40526;52.088;17.020;2023-02-04T23:41:41;14.20;;;6.57;;
31514;SDS011;40526;52.088;17.020;2023-02-04T23:46:44;18.55;;;6.50;;
31514;SDS011;40526;52.088;17.020;2023-02-04T23:51:47;14.98;;;5.25;;
31514;SDS011;40526;52.088;17.020;2023-02-04T23:56:54;19.23;;;7.05;;
